Linden, NJ

2:16 PM EDT on August 25, 2016 (GMT -0400)
Linden

Weather History for KLDJ - February, 2013

Change the Weather History Date:

Saturday, February 9, 2013

  Actual Average (KEWR) Record (KEWR)
Temperature  
Mean Temperature 28 °F 34 °F  
Max Temperature 34 °F 41 °F 63 °F (1990)
Min Temperature 22 °F 26 °F -14 °F (1934)
Degree Days  
Heating Degree Days 36 32  
Month to date heating degree days 290  
Since 1 July heating degree days 3074  
Cooling Degree Days 0 0  
Month to date cooling degree days 0  
Year to date cooling degree days 0  
Moisture  
Dew Point 19 °F    
Average Humidity 64    
Maximum Humidity 95    
Minimum Humidity 40    
Precipitation  
Precipitation 0.39 in 0.10 in 1.35 in (1969)
Month to date precipitation 0.91  
Year to date precipitation 4.45  
Snow  
Snow 0.00 in 0.30 in 13.30 in (1969)
Month to date snowfall 3.0  
Since 1 July snowfall 16.7  
Snow Depth -    
Sea Level Pressure  
Sea Level Pressure 30.02 in    
Wind  
Wind Speed 12 mph (NW)    
Max Wind Speed 22 mph    
Max Gust Speed 34 mph    
Visibility 8 miles    
Events Snow    
T = Trace of Precipitation, MM = Missing Value Source: NWS Daily Summary

Daily Weather History Graph

Daily Weather History Graph

Search for Another Location

Airport or City:

Trip Planner

Search our weather history database for the weather conditions in past years. The results will help you decide how hot, cold, wet, or windy it might be!

Date:

Astronomy

Feb. 09, 2013 Rise Set
Actual Time 6:57 AM EST 5:25 PM EST
Civil Twilight 6:29 AM EST 5:53 PM EST
Nautical Twilight 5:57 AM EST 6:25 PM EST
Astronomical Twilight 5:25 AM EST 6:57 PM EST
Moon 6:07 AM EST (2/9) 5:04 PM EST (2/9)
Length of Visible Light 11h 23m
Length of Day
10h 27m
Waning Crescent, 0% of the Moon is Illuminated
Feb 9
Waning Crescent
Feb 10
New
Feb 17
First Quarter
Feb 25
Full
Mar 4
Last Quarter

Hourly Weather History & Observations

Time (EST) Temp. Windchill Dew Point Humidity Pressure Visibility Wind Dir Wind Speed Gust Speed Precip Events Conditions
12:15 AM 30.2 °F 20.2 °F 28.4 °F 93% 29.78 in 0.8 mi NNW 12.7 mph 20.7 mph 0.04 in Snow Snow
12:35 AM 30.0 °F 22.4 °F 28.2 °F 93% 29.77 in 1.0 mi North 8.1 mph 16.1 mph 0.08 in Snow Snow
12:55 AM 30.0 °F 23.2 °F 28.4 °F 94% 29.78 in 0.8 mi North 6.9 mph - 0.10 in Snow Snow
1:15 AM 30.2 °F 23.4 °F 28.4 °F 93% 29.78 in 1.2 mi North 6.9 mph - 0.01 in Snow Light Snow
1:35 AM 30.2 °F 24.3 °F 28.8 °F 94% 29.78 in 0.8 mi NNW 5.8 mph - 0.03 in Snow Snow
1:55 AM 30.4 °F 26.9 °F 29.1 °F 95% 29.78 in 1.2 mi NNW 3.5 mph - 0.06 in Snow Light Snow
2:15 AM 30.6 °F 23.1 °F 29.1 °F 94% 29.80 in 1.2 mi NW 8.1 mph - 0.03 in Snow Light Snow
2:35 AM 30.6 °F 23.8 °F 29.3 °F 95% 29.80 in 0.5 mi NW 6.9 mph - 0.07 in Snow Snow
2:55 AM 30.9 °F 24.3 °F 29.7 °F 95% 29.81 in 0.5 mi North 6.9 mph - 0.10 in Snow Heavy Snow
3:15 AM 31.1 °F 24.5 °F 29.8 °F 95% 29.81 in 1.0 mi NW 6.9 mph - 0.03 in Snow Snow
3:35 AM 31.1 °F 25.4 °F 29.8 °F 95% 29.81 in 3.0 mi WNW 5.8 mph - 0.07 in Snow Light Snow
3:55 AM 31.8 °F 25.4 °F 30.2 °F 94% 29.81 in 7.0 mi NW 6.9 mph - 0.10 in Snow Light Snow
4:15 AM 32.0 °F 24.2 °F 30.2 °F 93% 29.82 in 2.5 mi WNW 9.2 mph - 0.02 in Snow Light Snow
4:35 AM 32.0 °F 21.2 °F 29.5 °F 90% 29.83 in 10.0 mi NW 16.1 mph 23.0 mph 0.03 in   Overcast
4:55 AM 32.0 °F 22.1 °F 27.5 °F 83% 29.83 in 10.0 mi NW 13.8 mph 19.6 mph 0.03 in   Overcast
5:15 AM 32.0 °F 21.6 °F 27.1 °F 82% 29.85 in 10.0 mi NW 15.0 mph 20.7 mph N/A   Overcast
5:35 AM 32.0 °F 22.5 °F 26.8 °F 81% 29.85 in 10.0 mi NW 12.7 mph 19.6 mph N/A   Overcast
5:55 AM 32.0 °F 22.1 °F 27.3 °F 83% 29.86 in 10.0 mi WNW 13.8 mph 20.7 mph N/A   Overcast
6:15 AM 31.6 °F 20.7 °F 25.5 °F 78% 29.87 in 10.0 mi NW 16.1 mph 20.7 mph N/A   Overcast
6:35 AM 30.9 °F 19.8 °F 25.3 °F 80% 29.88 in 10.0 mi WNW 16.1 mph 21.9 mph N/A   Mostly Cloudy
6:55 AM 30.7 °F 20.4 °F 24.4 °F 77% 29.89 in 10.0 mi West 13.8 mph - N/A   Mostly Cloudy
7:15 AM 29.8 °F 18.4 °F 23.5 °F 77% 29.91 in 10.0 mi WNW 16.1 mph 25.3 mph N/A   Overcast
7:35 AM 29.8 °F 17.3 °F 22.6 °F 75% 29.92 in 10.0 mi WNW 19.6 mph 24.2 mph N/A   Overcast
7:55 AM 29.8 °F 16.6 °F 21.7 °F 72% 29.93 in 7.0 mi WNW 21.9 mph 28.8 mph N/A   Overcast
8:15 AM 29.5 °F 16.8 °F 20.8 °F 70% 29.94 in 10.0 mi WNW 19.6 mph 25.3 mph N/A   Scattered Clouds
8:35 AM 29.3 °F 19.1 °F 20.1 °F 69% 29.95 in 10.0 mi WNW 12.7 mph 23.0 mph N/A   Clear
8:55 AM 29.1 °F 17.5 °F 19.4 °F 67% 29.96 in 10.0 mi WNW 16.1 mph 24.2 mph N/A   Clear
9:15 AM 28.9 °F 17.3 °F 19.4 °F 68% 29.98 in 10.0 mi NW 16.1 mph 28.8 mph N/A   Clear
9:35 AM 29.3 °F 18.2 °F 19.2 °F 66% 29.99 in 10.0 mi NW 15.0 mph 24.2 mph N/A   Clear
9:55 AM 28.8 °F 16.2 °F 18.7 °F 66% 30.00 in 10.0 mi NW 18.4 mph 24.2 mph N/A   Clear
10:15 AM 28.4 °F 15.8 °F 18.3 °F 66% 30.01 in 7.0 mi NW 18.4 mph 26.5 mph N/A   Clear
10:35 AM 28.4 °F 17.5 °F 18.1 °F 65% 30.02 in 4.0 mi WNW 13.8 mph 34.5 mph N/A   Haze
10:55 AM 28.4 °F 16.2 °F 17.8 °F 64% 30.03 in 10.0 mi NW 17.3 mph 32.2 mph N/A   Scattered Clouds
11:15 AM 29.1 °F 17.9 °F 17.6 °F 62% 30.03 in 10.0 mi WNW 15.0 mph 23.0 mph N/A   Scattered Clouds
11:35 AM 30.4 °F 19.5 °F 17.4 °F 59% 30.04 in 10.0 mi NW 15.0 mph 23.0 mph N/A   Clear
11:55 AM 31.1 °F 21.9 °F 17.6 °F 57% 30.04 in 5.0 mi NW 11.5 mph 27.6 mph N/A   Haze
12:15 PM 31.8 °F 20.6 °F 17.2 °F 55% 30.04 in 7.0 mi NNW 17.3 mph 25.3 mph N/A   Clear
12:35 PM 32.0 °F 20.8 °F 16.7 °F 53% 30.05 in 7.0 mi NW 17.3 mph 27.6 mph N/A   Clear
12:55 PM 32.0 °F 19.8 °F 16.5 °F 53% 30.05 in 7.0 mi NW 20.7 mph 29.9 mph N/A   Clear
1:15 PM 32.5 °F 21.2 °F 15.8 °F 50% 30.06 in 7.0 mi NW 18.4 mph 29.9 mph N/A   Clear
1:35 PM 33.1 °F 21.5 °F 16.3 °F 50% 30.06 in 10.0 mi NW 19.6 mph 26.5 mph N/A   Clear
1:55 PM 33.1 °F 21.9 °F 15.3 °F 48% 30.07 in 5.0 mi NW 18.4 mph 31.1 mph N/A   Haze
2:15 PM 33.8 °F 22.8 °F 14.7 °F 46% 30.07 in 10.0 mi WNW 18.4 mph 26.5 mph N/A   Clear
2:35 PM 34.0 °F 23.8 °F 14.7 °F 45% 30.09 in 10.0 mi WNW 16.1 mph 28.8 mph N/A   Clear
2:55 PM 34.0 °F 22.7 °F 14.9 °F 46% 30.09 in 10.0 mi WNW 19.6 mph 27.6 mph N/A   Clear
3:15 PM 33.4 °F 22.7 °F 14.0 °F 45% 30.09 in 10.0 mi WNW 17.3 mph 28.8 mph N/A   Clear
3:35 PM 33.3 °F 22.1 °F 13.3 °F 44% 30.10 in 7.0 mi NW 18.4 mph 33.4 mph N/A   Clear
3:55 PM 33.1 °F 22.2 °F 12.7 °F 43% 30.10 in 7.0 mi NW 17.3 mph 31.1 mph N/A   Clear
4:15 PM 33.3 °F 22.5 °F 11.8 °F 41% 30.11 in 10.0 mi NW 17.3 mph 24.2 mph N/A   Clear
4:35 PM 32.9 °F 21.3 °F 10.8 °F 40% 30.13 in 10.0 mi NW 19.6 mph 24.2 mph N/A   Clear
4:55 PM 32.4 °F 21.7 °F 10.2 °F 40% 30.14 in 10.0 mi WNW 16.1 mph 21.9 mph N/A   Clear
5:15 PM 32.0 °F 20.1 °F 10.8 °F 41% 30.16 in 10.0 mi NW 19.6 mph 26.5 mph N/A   Clear
5:35 PM 31.3 °F 18.5 °F 11.1 °F 43% 30.17 in 10.0 mi WNW 21.9 mph 27.6 mph N/A   Clear
5:55 PM 30.7 °F 19.6 °F 10.6 °F 43% 30.18 in 10.0 mi WNW 16.1 mph 23.0 mph N/A   Clear
6:15 PM 30.2 °F 18.1 °F 10.0 °F 43% 30.19 in 10.0 mi NW 18.4 mph 26.5 mph N/A   Clear
6:35 PM 30.0 °F 20.5 °F 9.5 °F 42% 30.21 in 10.0 mi NW 11.5 mph 23.0 mph N/A   Clear
6:55 PM 29.8 °F 21.5 °F 8.8 °F 41% 30.22 in 10.0 mi NW 9.2 mph - N/A   Clear
7:15 PM 28.6 °F 17.7 °F 9.7 °F 45% 30.22 in 10.0 mi NW 13.8 mph 23.0 mph N/A   Clear
7:35 PM 28.4 °F 19.1 °F 9.0 °F 44% 30.24 in 10.0 mi NW 10.4 mph 16.1 mph N/A   Clear
7:55 PM 27.5 °F 20.2 °F 9.1 °F 46% 30.25 in 10.0 mi NW 6.9 mph - N/A   Clear
8:15 PM 26.8 °F 17.1 °F 9.3 °F 48% 30.26 in 10.0 mi NW 10.4 mph - N/A   Clear
8:35 PM 26.4 °F 16.0 °F 8.8 °F 47% 30.28 in 10.0 mi NW 11.5 mph - N/A   Clear
9:15 PM 25.7 °F 16.4 °F 8.8 °F 49% 30.31 in 10.0 mi NW 9.2 mph - N/A   Clear
9:35 PM 25.3 °F 14.1 °F 9.0 °F 50% 30.32 in 10.0 mi WNW 12.7 mph 16.1 mph N/A   Clear
10:35 PM 23.7 °F 11.5 °F 9.5 °F 55% 30.33 in 10.0 mi NW 13.8 mph - N/A   Clear
10:55 PM 23.5 °F 15.4 °F 9.3 °F 55% 30.34 in 10.0 mi NW 6.9 mph 16.1 mph N/A   Clear
11:15 PM 23.0 °F 12.4 °F 9.1 °F 55% 30.35 in 10.0 mi NW 10.4 mph - N/A   Clear
11:35 PM 22.6 °F 12.6 °F 9.1 °F 56% 30.36 in 10.0 mi NW 9.2 mph - N/A   Clear